• Join FlightAware (Why Join?)
  • Login
  • US Flag 
 
12:45AM EST


 

Airport Tracker/Info


-or-


 

Live Flight TrackerFlight Track Log ✈ CPT7773 ✈ 30-Apr-2013 ✈ KCOD - KCPR

Flight Track Log - Related Links

Times and Time Zones

All times are in EDT time to prevent confusion due to time zone crossing. See the CPT7773 flight status page for this flight to view local times or setup timezone preferences in your user account.

Time Position Orientation Groundspeed Altitude Reporting Facility
EDT Latitude Longitude Course Direction KTS MPH feet Rate Location/Type
08:12PM 44.3716 -108.6913 120° Southeast  Level FlightAware Approximate
08:13PM 44.3485 -108.6358 120° Southeast  Level FlightAware Approximate
08:14PM 44.3255 -108.5804 120° Southeast  Level FlightAware Approximate
08:15PM 44.3023 -108.5250 120° Southeast  Level FlightAware Approximate
08:15PM 44.5392 -109.0092 133° Southeast 99 114 6,000  Level Salt Lake Center
08:16PM 44.2792 -108.4697 120° Southeast  Level FlightAware Approximate
08:16PM 44.5661 -108.9953 20° North 108 124 6,900  Level Salt Lake Center
08:17PM 44.2560 -108.4144 120° Southeast  Level FlightAware Approximate
08:17PM 44.5956 -108.9808 19° North 105 121 8,000  Level Salt Lake Center
08:18PM 44.2269 -108.3653 133° Southeast  Level FlightAware Approximate
08:18PM 44.6092 -108.9514 57° Northeast 116 133 8,900  Level Salt Lake Center
08:19PM 44.1957 -108.3184 133° Southeast  Level FlightAware Approximate
08:19PM 44.5861 -108.9139 131° Southeast 130 150 9,700  Level Salt Lake Center
08:20PM 44.1645 -108.2715 133° Southeast  Level FlightAware Approximate
08:20PM 44.5575 -108.8706 133° Southeast 134 154 10,600  Level Salt Lake Center
08:21PM 44.5342 -108.8325 131° Southeast 135 155 11,000 240 Climbing Salt Lake Center
08:22PM 44.5033 -108.7825 131° Southeast 142 163 11,100  Climbing Salt Lake Center
08:23PM 44.4731 -108.7378 133° Southeast 153 176 11,000  Descending Salt Lake Center
08:24PM 44.4447 -108.6906 130° Southeast 161 185 11,100  Climbing Salt Lake Center
08:25PM 44.4114 -108.6389 132° Southeast 161 185 11,000  Descending Salt Lake Center
08:26PM 44.3814 -108.5922 132° Southeast 164 189 11,100  Climbing Salt Lake Center
08:27PM 44.3475 -108.5400 132° Southeast 164 189 11,000 -60 Descending Salt Lake Center
08:28PM 44.3189 -108.4953 132° Southeast 163 188 11,000  Level Salt Lake Center
08:29PM 44.2856 -108.4439 132° Southeast 162 186 11,100  Climbing Salt Lake Center
08:30PM 44.2558 -108.3992 133° Southeast 162 186 11,000 -60 Descending Salt Lake Center
08:31PM 44.2275 -108.3544 131° Southeast 162 186 11,000  Level Salt Lake Center
08:32PM 44.1944 -108.3022 131° Southeast 161 185 11,100  Climbing Salt Lake Center
08:33PM 44.1664 -108.2592 132° Southeast 159 183 11,100  Level Salt Lake Center
08:34PM 44.1344 -108.2100 132° Southeast 157 181 11,100 -60 Level Salt Lake Center
08:35PM 44.1069 -108.1675 132° Southeast 155 178 11,000  Descending Salt Lake Center
08:36PM 44.0808 -108.1278 132° Southeast 151 174 11,100  Climbing Salt Lake Center
08:37PM 44.0475 -108.0783 133° Southeast 153 176 11,000  Descending Salt Lake Center
08:38PM 44.0189 -108.0356 133° Southeast 155 178 11,100  Climbing Salt Lake Center
08:39PM 43.9858 -107.9844 132° Southeast 158 182 11,000 -120 Descending Salt Lake Center
08:40PM 43.9572 -107.9417 133° Southeast 158 182 10,900 -60 Descending Salt Lake Center
08:41PM 43.9294 -107.8864 125° Southeast 156 180 10,900  Level Salt Lake Center
08:42PM 43.9061 -107.8350 122° Southeast 159 183 11,000  Climbing Salt Lake Center
08:43PM 43.8803 -107.7861 126° Southeast 162 186 11,000  Level Salt Lake Center
08:44PM 43.8486 -107.7272 127° Southeast 167 192 11,000  Level Salt Lake Center
08:45PM 43.8225 -107.6753 125° Southeast 169 194 11,000  Level Salt Lake Center
08:46PM 43.7917 -107.6175 126° Southeast 169 194 11,000  Level Salt Lake Center
08:47PM 43.7672 -107.5689 125° Southeast 165 190 11,000 -60 Level Salt Lake Center
08:48PM 43.7428 -107.5211 125° Southeast 162 186 10,900 -60 Descending Salt Lake Center
08:49PM 43.7144 -107.4681 126° Southeast 158 182 10,900  Level Salt Lake Center
08:50PM 43.6897 -107.4203 126° Southeast 158 182 10,900  Level Salt Lake Center
08:51PM 43.6608 -107.3650 126° Southeast 158 182 10,900  Level Salt Lake Center
08:52PM 43.6367 -107.3153 124° Southeast 160 184 11,000  Climbing Salt Lake Center
08:53PM 43.6131 -107.2686 125° Southeast 158 182 11,000  Level Salt Lake Center
08:54PM 43.5836 -107.2167 128° Southeast 156 180 11,000  Level Salt Lake Center
08:55PM 43.5586 -107.1686 126° Southeast 158 182 11,000  Level Salt Lake Center
08:57PM 43.5308 -107.1142 125° Southeast 157 181 11,000  Level Salt Lake Center
08:57PM 43.5197 -107.0911 124° Southeast 155 178 11,000  Level Denver Center
08:58PM 43.4967 -107.0456 125° Southeast 153 176 11,000  Level Denver Center
08:59PM 43.4694 -106.9917 125° Southeast 153 176 11,000  Level Denver Center
09:00PM 43.4453 -106.9467 126° Southeast 153 176 11,000  Level Denver Center
09:01PM 43.4183 -106.8947 126° Southeast 150 173 11,000  Level Denver Center
09:02PM 43.3947 -106.8494 126° Southeast 153 176 11,000 -120 Level Denver Center
09:03PM 43.3681 -106.7969 125° Southeast 150 173 10,800 -420 Descending Denver Center
09:04PM 43.3253 -106.7725 157° South 163 188 10,200 -420 Descending Denver Center
09:05PM 43.2844 -106.7472 156° South 168 193 10,000 -180 Descending Denver Center
09:06PM 43.2444 -106.7111 147° Southeast 156 180 9,900 -480 Descending Denver Center
09:07PM 43.2117 -106.6828 148° Southeast 150 173 9,100 -840 Descending Denver Center
09:08PM 43.1678 -106.6492 151° Southeast 154 177 8,300 -540 Descending Denver Center
09:09PM 43.1283 -106.6222 153° Southeast 159 183 8,000 -480 Descending Denver Center
09:10PM 43.0867 -106.6017 160° South 161 185 7,400 -600 Descending Denver Center
09:12PM 43.0500 -106.5734 151° Southeast  Level Estimated
09:19PM 42.9080 -106.4644 151° Southeast  Level Estimated
09:20PM 42.9080 -106.4644 90° East  Level Estimated
09:21PM 42.9080 -106.4644 90° East  Level Estimated
09:22PM 42.9080 -106.4644 90° East  Level Estimated
09:23PM 42.9080 -106.4644 90° East  Level Estimated
09:24PM 42.9080 -106.4644 90° East  Level Estimated